Ginys del Meteocat

Dades de l'estació automàtica Rellinars

?
?
Resum diari 21:30 TU
Dades diàries de l'estació meteorològica
Temperatura mitjana 5.5 °C
Temperatura màxima 13.2 °C 13:32 TU
Temperatura mínima 0.3 °C 6:52 TU
Humitat relativa mitjana 89%
Precipitació acumulada 0.2 mm
Ratxa màxima del vent (2 m) 10.4 km/h - 60º 18:53 TU
Irradiació solar global 7.8 MJ/m2

El tram horari està expressat en Temps Universal (TU). Cal sumar una hora en horari d'hivern i dues en horari d'estiu per passar a l'hora oficial.

Rellinars

Metadades estació meteorol´gica
Municipi Rellinars
Comarca Vallès Occidental
Altitud 421 m
Data alta 18.02.1998
Estat actual Operativa
Dades de període
Període
TU
TM
°C
TX
°C
TN
°C
HRM
%
PPT
mm
VVM (2 m)
km/h
DVM (2 m)
graus
VVX (2 m)
km/h
RS
W/m2
00:00 - 00:30 3.2 3.5 3.1 98 0.1 1.1 61 4.0 0
00:30 - 01:00 3.2 3.3 3.0 98 0.0 0.0 85 1.8 0
01:00 - 01:30 3.0 3.1 3.0 98 0.0 0.4 63 2.9 0
01:30 - 02:00 2.9 3.0 2.5 98 0.0 0.7 62 5.0 0
02:00 - 02:30 2.4 2.5 2.2 98 0.0 2.5 66 5.4 0
02:30 - 03:00 2.3 2.5 2.2 98 0.0 2.2 79 3.6 0
03:00 - 03:30 2.2 2.5 2.0 98 0.0 1.8 76 4.0 0
03:30 - 04:00 1.9 2.3 1.6 98 0.0 3.2 64 7.6 0
04:00 - 04:30 1.8 2.5 1.2 98 0.0 0.7 14 4.0 0
04:30 - 05:00 1.4 1.5 1.2 98 0.0 0.0 268 2.5 0
05:00 - 05:30 1.5 1.5 1.4 98 0.1 0.0 308 1.1 0
05:30 - 06:00 1.1 1.4 0.9 98 0.0 0.0 63 1.8 0
06:00 - 06:30 1.0 1.1 0.9 98 0.0 0.4 72 2.2 0
06:30 - 07:00 0.5 0.8 0.3 98 0.0 1.4 74 6.1 0
07:00 - 07:30 0.7 1.2 0.4 98 0.0 1.1 31 3.6 6
07:30 - 08:00 0.6 0.7 0.5 98 0.0 0.0 333 2.5 27
08:00 - 08:30 0.8 1.0 0.5 98 0.0 0.0 19 2.2 57
08:30 - 09:00 1.3 1.6 1.0 98 0.0 0.4 337 2.5 90
09:00 - 09:30 1.6 1.9 1.5 98 0.0 0.4 318 3.2 126
09:30 - 10:00 1.8 2.5 1.5 98 0.0 0.7 322 3.2 161
10:00 - 10:30 2.9 3.4 2.3 99 0.0 0.4 13 2.9 224
10:30 - 11:00 3.7 4.3 2.9 99 0.0 0.4 248 3.2 283
11:00 - 11:30 4.7 5.3 3.9 99 0.0 1.4 229 3.6 415
11:30 - 12:00 6.1 7.6 5.2 99 0.0 0.7 303 4.7 475
12:00 - 12:30 8.7 9.6 7.7 90 0.0 1.8 236 5.4 475
12:30 - 13:00 10.2 11.0 9.8 77 0.0 1.1 255 4.3 468
13:00 - 13:30 12.0 13.1 11.2 66 0.0 0.4 47 3.2 443
13:30 - 14:00 12.7 13.2 12.4 62 0.0 0.4 314 2.9 370
14:00 - 14:30 12.8 13.2 12.4 65 0.0 0.4 265 2.9 337
14:30 - 15:00 13.0 13.2 12.8 64 0.0 1.1 247 4.0 138
15:00 - 15:30 12.8 13.0 12.6 65 0.0 1.8 213 5.0 128
15:30 - 16:00 12.7 13.0 12.2 67 0.0 2.5 205 6.1 111
16:00 - 16:30 11.7 12.1 11.2 69 0.0 4.0 173 9.0 30
16:30 - 17:00 10.9 11.1 10.7 72 0.0 2.9 152 5.4 8
17:00 - 17:30 10.2 10.7 9.2 73 0.0 3.6 137 6.5 0
17:30 - 18:00 8.2 9.0 7.7 83 0.0 4.7 77 9.4 0
18:00 - 18:30 7.7 7.8 7.5 85 0.0 4.0 78 9.4 0
18:30 - 19:00 7.5 7.6 7.4 85 0.0 4.7 73 10.4 0
19:00 - 19:30 7.6 7.8 7.3 85 0.0 4.0 78 10.4 0
19:30 - 20:00 7.3 7.8 7.0 86 0.0 4.7 78 9.7 0
20:00 - 20:30 7.1 7.8 6.7 87 0.0 3.6 78 7.6 0
20:30 - 21:00 6.7 7.0 6.3 88 0.0 2.9 73 6.1 0
21:00 - 21:30 6.0 6.5 5.4 91 0.0 2.9 56 5.4 0
21:30 - 22:00 5.3 5.5 5.3 94 0.0 1.8 26 5.0 0

Les dades en taronja només han passat un control de qualitat automàtic. Resta pendent la seva validació definitiva.